Archival Weather

NSFA McMurdo Sound

NSFA McMurdo Sound, Antarctica (NZCM)

Report from: Tuesday, September 19, 2023 5:55 PM UTC
Current time: Tuesday, July 16, 2024 4:16 PM UTC

Current weather – Weather history – Daily summaries
Weather forecast

Present weatherLight snow
Temperature-12.5°C (9.5°F)
Wind chill-18.6°C (-1.5°F)
Dew point-18.5°C (-1.3°F)
Winds 6 kts (3.1 m/s, 6.9 mph) East-Northeast (70°)
Visibility6.2 mi. (10 km)
Clouds Ceiling: Broken clouds 4,300 ft. (1,311 m)
Overcast 7,500 ft. (2,286 m)
Altimeter28.81 in.Hg (976 mB)
Precip. events Snow ended 5:31 PM
Snow began 5:32 PM
Snow ended 5:42 PM
Snow began 5:46 PM
Relative humidity61 %
Density altitude-5,555 ft. (-1,693 m)
Sea-level pressure107.6 kPa (1076 mB, 31.78 in.Hg)
Max temp last 6 hours-12.3°C (9.9°F)
Min temp last 6 hours-13.7°C (7.3°F)
Remarks Fully automated report
Automated weather observing station with precipitation discriminator
Pressure falling more slowly
Flight conditions Visual Meteorological Conditions
Raw dataNZCM 191755Z AUTO 07006KT 9999 -SN BKN043 OVC075 M13/M18 A2881 RMK AO2 SNE1731B1732E1742B1746 SLP762 T11251185 11123 21137 56011
An error has occurred. This application may no longer respond until reloaded. Reload 🗙